createdAt,value
2019-05-18T00:01:40.272Z,84.87
2019-05-18T00:04:09.632Z,85.17
2019-05-18T00:06:38.715Z,85.03
2019-05-18T00:09:07.661Z,85.29
2019-05-18T00:11:37.367Z,85.54
2019-05-18T00:14:08.108Z,85.56
2019-05-18T00:16:37.502Z,85.42
2019-05-18T00:19:06.397Z,85.47
2019-05-18T00:21:35.811Z,85.43
2019-05-18T00:24:04.718Z,85.17
2019-05-18T00:26:34.841Z,85.26
2019-05-18T00:29:04.477Z,84.94
2019-05-18T00:31:34.077Z,85.14
2019-05-18T00:34:04.794Z,84.90
2019-05-18T00:36:34.114Z,84.92
2019-05-18T00:39:02.944Z,84.79
2019-05-18T00:41:31.837Z,85.29
2019-05-18T00:44:00.736Z,84.96
2019-05-18T00:46:30.168Z,85.42
2019-05-18T00:49:00.114Z,85.55
2019-05-18T00:51:29.567Z,85.69
2019-05-18T00:53:58.420Z,85.71
2019-05-18T00:56:27.242Z,85.84
2019-05-18T00:58:56.037Z,85.56
2019-05-18T01:01:24.871Z,85.44
2019-05-18T01:03:53.923Z,85.35
2019-05-18T01:06:24.037Z,85.87
2019-05-18T01:08:52.922Z,85.78
2019-05-18T01:11:21.779Z,85.86
2019-05-18T01:13:50.686Z,85.94
2019-05-18T01:16:19.754Z,85.93
2019-05-18T01:18:49.715Z,85.76
2019-05-18T01:21:18.623Z,86.61
2019-05-18T01:23:49.492Z,86.76
2019-05-18T01:26:19.135Z,86.83
2019-05-18T01:28:48.855Z,87.16
2019-05-18T01:31:18.437Z,86.84
2019-05-18T01:33:49.067Z,86.79
2019-05-18T01:36:18.647Z,87.26
2019-05-18T01:38:48.177Z,87.18
2019-05-18T01:41:17.684Z,86.72
2019-05-18T01:43:47.362Z,86.85
2019-05-18T01:46:16.844Z,87.50
2019-05-18T01:48:48.712Z,87.40
2019-05-18T01:51:17.978Z,87.51
2019-05-18T01:53:46.846Z,88.05
2019-05-18T01:56:16.324Z,87.96
2019-05-18T01:58:46.059Z,88.15
2019-05-18T02:01:15.371Z,87.89
2019-05-18T02:03:44.238Z,88.04
2019-05-18T02:06:13.096Z,87.64
2019-05-18T02:08:43.403Z,87.70
2019-05-18T02:11:12.990Z,87.64
2019-05-18T02:13:43.511Z,88.21
2019-05-18T02:16:14.581Z,89.02
2019-05-18T02:18:43.397Z,89.17
2019-05-18T02:21:12.732Z,90.17
2019-05-18T02:23:42.489Z,89.54
2019-05-18T02:26:12.529Z,89.61
2019-05-18T02:28:42.588Z,89.14
2019-05-18T02:31:13.112Z,88.68
2019-05-18T02:33:43.363Z,88.35
2019-05-18T02:36:12.260Z,88.34
2019-05-18T02:38:42.091Z,88.17
2019-05-18T02:41:10.943Z,88.16
2019-05-18T02:43:39.810Z,88.35
2019-05-18T02:46:08.623Z,87.90
2019-05-18T02:48:48.747Z,87.72
2019-05-18T02:51:11.103Z,87.37
2019-05-18T02:53:36.430Z,87.01
2019-05-18T02:56:07.152Z,87.08
2019-05-18T02:58:36.880Z,86.63
2019-05-18T03:01:05.873Z,86.82
2019-05-18T03:03:36.385Z,86.86
2019-05-18T03:06:06.109Z,86.41
2019-05-18T03:08:35.583Z,86.42
2019-05-18T03:11:05.388Z,86.39
2019-05-18T03:13:34.768Z,86.46
2019-05-18T03:16:03.625Z,86.86
2019-05-18T03:18:33.987Z,86.88
2019-05-18T03:21:02.807Z,86.94
2019-05-18T03:23:32.734Z,87.38
2019-05-18T03:26:02.317Z,87.64
2019-05-18T03:28:32.459Z,88.08
2019-05-18T03:31:01.357Z,88.78
2019-05-18T03:33:30.753Z,88.91
2019-05-18T03:36:00.483Z,88.93
2019-05-18T03:38:36.776Z,89.75
2019-05-18T03:41:06.564Z,90.68
2019-05-18T03:43:36.055Z,90.48
2019-05-18T03:46:06.021Z,91.04
2019-05-18T03:48:36.710Z,90.49
2019-05-18T03:51:06.927Z,90.58
2019-05-18T03:53:36.375Z,90.40
2019-05-18T03:56:05.216Z,90.42
2019-05-18T03:58:35.213Z,90.20
2019-05-18T04:01:04.253Z,90.42
2019-05-18T04:03:33.873Z,90.60
2019-05-18T04:06:04.793Z,90.38
2019-05-18T04:08:34.441Z,90.00
2019-05-18T04:11:04.194Z,89.43
2019-05-18T04:13:33.357Z,89.15
2019-05-18T04:16:02.881Z,88.78
2019-05-18T04:18:33.533Z,88.46
2019-05-18T04:21:05.530Z,88.03
2019-05-18T04:23:34.591Z,87.26
2019-05-18T04:26:03.626Z,86.60
2019-05-18T04:28:33.288Z,85.92
2019-05-18T04:31:02.705Z,85.68
2019-05-18T04:33:31.512Z,85.29
2019-05-18T04:36:01.229Z,85.15
2019-05-18T04:38:30.759Z,84.75
2019-05-18T04:41:00.809Z,84.68
2019-05-18T04:43:30.384Z,84.42
2019-05-18T04:46:00.101Z,84.38
2019-05-18T04:48:30.841Z,84.30
2019-05-18T04:51:00.754Z,82.51
2019-05-18T04:53:29.913Z,79.85
2019-05-18T04:56:00.380Z,79.12
2019-05-18T04:58:30.129Z,78.47
2019-05-18T05:00:59.725Z,79.38
2019-05-18T05:03:29.319Z,78.80
2019-05-18T05:05:58.213Z,77.71
2019-05-18T05:08:28.235Z,76.80
2019-05-18T05:10:57.068Z,75.95
2019-05-18T05:13:26.477Z,71.80
2019-05-18T05:15:55.263Z,67.38
2019-05-18T05:18:25.438Z,63.92
2019-05-18T05:20:54.258Z,59.22
2019-05-18T05:23:24.053Z,54.33
2019-05-18T05:25:52.928Z,52.81
2019-05-18T05:28:21.861Z,51.61
2019-05-18T05:30:52.741Z,50.39
2019-05-18T05:33:22.559Z,48.68
2019-05-18T05:35:52.435Z,48.43
2019-05-18T05:38:22.542Z,46.50
2019-05-18T05:40:52.288Z,46.58
2019-05-18T05:43:21.161Z,44.07
2019-05-18T05:45:50.249Z,44.78
2019-05-18T05:48:19.064Z,43.54
2019-05-18T05:50:48.596Z,42.01
2019-05-18T05:53:18.060Z,40.97
2019-05-18T05:55:47.955Z,40.68
2019-05-18T05:58:17.433Z,39.80
2019-05-18T06:00:47.550Z,38.68
2019-05-18T06:03:17.490Z,38.01
2019-05-18T06:05:47.148Z,37.51
2019-05-18T06:08:17.020Z,35.49
2019-05-18T06:10:45.821Z,34.57
2019-05-18T06:13:17.907Z,33.59
2019-05-18T06:15:47.619Z,37.98
2019-05-18T06:18:17.345Z,40.40
2019-05-18T06:20:52.123Z,39.84
2019-05-18T06:23:21.067Z,41.16
2019-05-18T06:25:49.930Z,40.69
2019-05-18T06:28:19.537Z,38.50
2019-05-18T06:30:50.071Z,36.65
2019-05-18T06:33:19.757Z,37.33
2019-05-18T06:35:50.337Z,36.67
2019-05-18T06:38:19.389Z,34.74
2019-05-18T06:40:48.237Z,36.88
2019-05-18T06:43:18.354Z,38.08
2019-05-18T06:45:47.232Z,39.24
2019-05-18T06:48:16.071Z,43.03
2019-05-18T06:50:45.410Z,43.25
2019-05-18T06:53:16.840Z,43.83
2019-05-18T06:55:46.241Z,45.18
2019-05-18T06:58:15.734Z,45.81
2019-05-18T07:00:45.545Z,46.72
2019-05-18T07:03:14.380Z,45.05
2019-05-18T07:05:45.452Z,46.10
2019-05-18T07:08:19.748Z,47.51
2019-05-18T07:10:49.796Z,46.70
2019-05-18T07:13:19.400Z,45.72
2019-05-18T07:15:48.996Z,45.51
2019-05-18T07:18:17.885Z,46.35
2019-05-18T07:20:48.841Z,46.30
2019-05-18T07:23:19.207Z,47.80
2019-05-18T07:25:48.434Z,50.10
2019-05-18T07:28:17.367Z,50.92
2019-05-18T07:30:46.975Z,51.42
2019-05-18T07:33:17.031Z,52.82
2019-05-18T07:35:47.184Z,53.00
2019-05-18T07:38:16.031Z,54.51
2019-05-18T07:40:44.872Z,55.39
2019-05-18T07:43:13.915Z,55.06
2019-05-18T07:45:42.747Z,56.04
2019-05-18T07:48:11.617Z,57.20
2019-05-18T07:50:40.558Z,57.54
2019-05-18T07:53:09.364Z,58.13
2019-05-18T07:55:39.375Z,58.21
2019-05-18T07:58:08.127Z,58.98
2019-05-18T08:00:38.848Z,58.72
2019-05-18T08:03:08.209Z,58.81
2019-05-18T08:05:41.923Z,59.16
2019-05-18T08:08:11.428Z,59.02
2019-05-18T08:10:43.507Z,58.62
2019-05-18T08:13:11.544Z,58.65
2019-05-18T08:15:40.410Z,59.30
2019-05-18T08:18:10.159Z,58.83
2019-05-18T08:20:40.083Z,58.26
2019-05-18T08:23:11.456Z,58.27
2019-05-18T08:25:40.352Z,59.33
2019-05-18T08:28:13.344Z,58.80
2019-05-18T08:30:43.585Z,57.42
2019-05-18T08:33:13.009Z,55.88
2019-05-18T08:35:42.589Z,56.42
2019-05-18T08:38:12.123Z,56.38
2019-05-18T08:40:44.743Z,55.14
2019-05-18T08:43:14.478Z,54.41
2019-05-18T08:45:45.719Z,55.83
2019-05-18T08:48:15.551Z,54.95
2019-05-18T08:50:44.588Z,55.75
2019-05-18T08:53:14.476Z,55.07
2019-05-18T08:55:45.797Z,54.28
2019-05-18T08:58:16.321Z,54.63
2019-05-18T09:00:45.234Z,53.56
2019-05-18T09:03:14.793Z,53.79
2019-05-18T09:05:43.714Z,53.34
2019-05-18T09:08:12.552Z,53.88
2019-05-18T09:10:41.405Z,54.28
2019-05-18T09:13:11.186Z,53.19
2019-05-18T09:15:40.604Z,51.82
2019-05-18T09:18:09.444Z,51.81
2019-05-18T09:20:38.647Z,51.84
2019-05-18T09:23:07.499Z,51.73
2019-05-18T09:25:36.315Z,50.78
2019-05-18T09:28:06.593Z,49.61
2019-05-18T09:30:35.398Z,48.52
2019-05-18T09:33:04.306Z,48.32
2019-05-18T09:35:33.267Z,47.22
2019-05-18T09:38:02.106Z,46.02
2019-05-18T09:40:30.933Z,46.54
2019-05-18T09:42:59.916Z,46.64
2019-05-18T09:45:30.741Z,47.19
2019-05-18T09:48:00.985Z,45.52
2019-05-18T09:50:30.156Z,45.37
2019-05-18T09:52:58.995Z,48.04
2019-05-18T09:55:27.811Z,47.46
2019-05-18T09:57:56.701Z,48.08
2019-05-18T10:00:25.869Z,47.78
2019-05-18T10:02:54.941Z,44.72
2019-05-18T10:05:23.853Z,45.46
2019-05-18T10:07:53.027Z,45.59
2019-05-18T10:10:21.887Z,44.37
2019-05-18T10:12:52.904Z,44.39
2019-05-18T10:15:22.632Z,42.02
2019-05-18T10:17:51.556Z,41.64
2019-05-18T10:20:21.283Z,43.45
2019-05-18T10:22:59.172Z,42.40
2019-05-18T10:25:21.043Z,42.69
2019-05-18T10:27:50.782Z,43.05
2019-05-18T10:30:19.652Z,43.60
2019-05-18T10:32:49.223Z,45.09
2019-05-18T10:35:18.397Z,45.04
2019-05-18T10:37:47.296Z,44.84
2019-05-18T10:40:16.955Z,42.99
2019-05-18T10:42:46.617Z,44.76
2019-05-18T10:45:16.011Z,43.65
2019-05-18T10:47:44.846Z,42.51
2019-05-18T10:50:13.764Z,40.17
2019-05-18T10:52:43.689Z,41.13
2019-05-18T10:55:12.518Z,40.79
2019-05-18T10:57:41.417Z,40.52
2019-05-18T11:00:11.724Z,41.02
2019-05-18T11:02:40.749Z,39.69
2019-05-18T11:05:09.589Z,40.11
2019-05-18T11:07:38.440Z,40.73
2019-05-18T11:10:07.987Z,39.61
2019-05-18T11:12:36.804Z,40.52
2019-05-18T11:15:05.690Z,42.32
2019-05-18T11:17:35.121Z,41.01
2019-05-18T11:20:05.340Z,40.81
2019-05-18T11:22:34.156Z,40.49
2019-05-18T11:25:03.578Z,39.26
2019-05-18T11:27:32.456Z,37.99
2019-05-18T11:30:01.819Z,36.60
2019-05-18T11:32:30.643Z,38.45
2019-05-18T11:35:00.195Z,38.23
2019-05-18T11:37:30.114Z,38.88
2019-05-18T11:39:58.955Z,40.00
2019-05-18T11:42:29.964Z,40.71
2019-05-18T11:44:58.935Z,39.21
2019-05-18T11:47:32.254Z,37.75
2019-05-18T11:50:01.218Z,39.29
2019-05-18T11:52:30.163Z,38.90
2019-05-18T11:55:00.833Z,37.25
2019-05-18T11:57:30.364Z,35.64
2019-05-18T11:59:59.181Z,36.04
2019-05-18T12:02:28.473Z,37.40
2019-05-18T12:04:57.272Z,36.28
2019-05-18T12:07:26.185Z,36.24
2019-05-18T12:09:55.344Z,36.98
2019-05-18T12:12:24.157Z,36.53
2019-05-18T12:14:54.336Z,34.91
2019-05-18T12:17:23.148Z,35.56
2019-05-18T12:19:53.951Z,34.71
2019-05-18T12:22:23.496Z,33.81
2019-05-18T12:24:53.237Z,34.84
2019-05-18T12:27:22.192Z,34.71
2019-05-18T12:29:53.109Z,33.79
2019-05-18T12:32:22.556Z,33.67
2019-05-18T12:34:51.367Z,33.73
2019-05-18T12:37:22.788Z,33.91
2019-05-18T12:39:53.206Z,33.93
2019-05-18T12:42:22.132Z,33.13
2019-05-18T12:44:50.979Z,31.97
2019-05-18T12:47:21.093Z,32.63
2019-05-18T12:49:49.999Z,31.34
2019-05-18T12:52:18.888Z,32.42
2019-05-18T12:54:47.686Z,32.87
2019-05-18T12:57:16.472Z,31.69
2019-05-18T12:59:45.423Z,32.34
2019-05-18T13:02:14.278Z,31.87
2019-05-18T13:04:43.708Z,32.05
2019-05-18T13:07:12.530Z,32.29
2019-05-18T13:09:43.748Z,32.27
2019-05-18T13:12:12.609Z,32.25
2019-05-18T13:14:42.000Z,32.59
2019-05-18T13:17:11.346Z,32.24
2019-05-18T13:19:40.176Z,31.70
2019-05-18T13:22:10.793Z,31.17
2019-05-18T13:24:45.392Z,32.97
2019-05-18T13:27:10.398Z,31.77
2019-05-18T13:29:40.270Z,32.36
2019-05-18T13:32:09.412Z,32.91
2019-05-18T13:34:38.307Z,33.64
2019-05-18T13:37:07.336Z,33.68
2019-05-18T13:39:36.173Z,34.13
2019-05-18T13:42:05.668Z,34.03
2019-05-18T13:44:43.853Z,34.47
2019-05-18T13:47:12.747Z,35.08
2019-05-18T13:49:41.624Z,33.85
2019-05-18T13:52:11.640Z,34.17
2019-05-18T13:54:40.620Z,34.98
2019-05-18T13:57:09.447Z,34.69
2019-05-18T13:59:38.481Z,34.75
2019-05-18T14:02:07.597Z,35.39
2019-05-18T14:04:37.684Z,35.84
2019-05-18T14:07:06.584Z,35.50
2019-05-18T14:09:35.443Z,36.39
2019-05-18T14:12:04.262Z,37.30
2019-05-18T14:14:33.085Z,37.63
2019-05-18T14:17:03.140Z,37.66
2019-05-18T14:19:32.564Z,39.00
2019-05-18T14:22:01.403Z,38.39
2019-05-18T14:24:30.252Z,38.91
2019-05-18T14:26:59.213Z,39.01
2019-05-18T14:29:28.975Z,38.13
2019-05-18T14:31:57.876Z,37.77
2019-05-18T14:34:26.712Z,37.98
2019-05-18T14:36:55.571Z,37.82
2019-05-18T14:39:24.425Z,37.69
2019-05-18T14:41:54.495Z,38.28
2019-05-18T14:44:23.403Z,37.30
2019-05-18T14:46:52.602Z,37.55
2019-05-18T14:49:22.104Z,38.10
2019-05-18T14:51:50.910Z,37.80
2019-05-18T14:54:19.814Z,37.39
2019-05-18T14:56:48.634Z,36.86
2019-05-18T14:59:18.736Z,36.73
2019-05-18T15:01:47.599Z,36.42
2019-05-18T15:04:17.134Z,35.61
2019-05-18T15:06:45.993Z,36.35
2019-05-18T15:09:16.303Z,35.58
2019-05-18T15:11:45.103Z,35.46
2019-05-18T15:14:13.952Z,35.27
2019-05-18T15:16:42.942Z,35.14
2019-05-18T15:19:11.795Z,35.36
2019-05-18T15:21:41.169Z,35.21
2019-05-18T15:24:10.061Z,36.50
2019-05-18T15:26:39.137Z,36.31
2019-05-18T15:29:08.096Z,35.80
2019-05-18T15:31:37.054Z,36.23
2019-05-18T15:34:06.368Z,35.25
2019-05-18T15:36:35.329Z,35.89
2019-05-18T15:39:05.244Z,36.13
2019-05-18T15:41:34.117Z,35.51
2019-05-18T15:44:02.931Z,35.04
2019-05-18T15:46:31.757Z,35.28
2019-05-18T15:49:00.680Z,34.84
2019-05-18T15:51:29.472Z,35.77
2019-05-18T15:53:59.540Z,35.56
2019-05-18T15:56:28.537Z,36.86
2019-05-18T15:58:57.393Z,36.30
2019-05-18T16:01:27.989Z,35.46
2019-05-18T16:03:57.556Z,34.93
2019-05-18T16:06:27.070Z,36.02
2019-05-18T16:08:56.226Z,36.02
2019-05-18T16:11:25.404Z,35.13
2019-05-18T16:13:55.049Z,34.33
2019-05-18T16:16:24.560Z,34.29
2019-05-18T16:18:55.091Z,34.85
2019-05-18T16:22:27.208Z,34.62
2019-05-18T16:24:56.123Z,35.07
2019-05-18T16:27:24.942Z,35.06
2019-05-18T16:29:54.829Z,34.94
2019-05-18T16:32:23.814Z,34.21
2019-05-18T16:34:53.291Z,34.85
2019-05-18T16:37:22.230Z,34.61
2019-05-18T16:39:51.075Z,34.61
2019-05-18T16:42:20.011Z,35.65
2019-05-18T16:44:49.490Z,35.14
2019-05-18T16:47:19.832Z,35.10
2019-05-18T16:49:50.701Z,35.18
2019-05-18T16:52:20.736Z,35.68
2019-05-18T16:54:50.605Z,35.97
2019-05-18T16:57:19.436Z,36.44
2019-05-18T16:59:48.481Z,37.48
2019-05-18T17:02:30.773Z,37.43
2019-05-18T17:04:50.461Z,38.17
2019-05-18T17:07:19.464Z,38.11
2019-05-18T17:09:48.343Z,38.85
2019-05-18T17:12:17.395Z,38.30
2019-05-18T17:14:46.307Z,38.99
2019-05-18T17:17:15.097Z,38.50
2019-05-18T17:19:43.956Z,38.54
2019-05-18T17:22:12.825Z,39.87
2019-05-18T17:24:41.914Z,39.74
2019-05-18T17:27:13.887Z,39.39
2019-05-18T17:29:43.720Z,40.12
2019-05-18T17:32:12.611Z,40.52
2019-05-18T17:34:41.397Z,40.69
2019-05-18T17:37:10.829Z,40.10
2019-05-18T17:39:40.374Z,40.71
2019-05-18T17:42:09.175Z,41.42
2019-05-18T17:44:38.826Z,41.34
2019-05-18T17:47:07.694Z,41.43
2019-05-18T17:49:36.576Z,41.72
2019-05-18T17:52:05.430Z,42.44
2019-05-18T17:54:36.071Z,42.24
2019-05-18T17:57:08.446Z,42.57
2019-05-18T17:59:33.768Z,42.18
2019-05-18T18:02:02.977Z,43.31
2019-05-18T18:04:32.610Z,43.23
2019-05-18T18:07:01.409Z,43.21
2019-05-18T18:09:30.255Z,43.48
2019-05-18T18:11:59.069Z,43.98
2019-05-18T18:14:27.937Z,43.73
2019-05-18T18:16:57.449Z,44.29
2019-05-18T18:19:26.397Z,44.79
2019-05-18T18:21:55.814Z,45.49
2019-05-18T18:24:24.795Z,46.12
2019-05-18T18:26:53.764Z,45.87
2019-05-18T18:29:22.601Z,46.51
2019-05-18T18:31:51.797Z,46.63
2019-05-18T18:34:20.612Z,47.37
2019-05-18T18:36:49.486Z,47.78
2019-05-18T18:39:18.536Z,48.08
2019-05-18T18:41:47.569Z,47.70
2019-05-18T18:44:16.491Z,48.33
2019-05-18T18:46:45.374Z,48.65
2019-05-18T18:49:14.205Z,49.32
2019-05-18T18:51:43.067Z,49.88
2019-05-18T18:54:12.782Z,49.66
2019-05-18T18:56:41.224Z,49.90
2019-05-18T18:59:12.607Z,50.39
2019-05-18T19:01:42.116Z,50.85
2019-05-18T19:04:11.888Z,51.21
2019-05-18T19:06:40.820Z,51.20
2019-05-18T19:09:09.699Z,51.09
2019-05-18T19:11:38.551Z,52.27
2019-05-18T19:14:08.176Z,52.02
2019-05-18T19:16:38.120Z,52.08
2019-05-18T19:19:08.751Z,52.54
2019-05-18T19:21:38.155Z,53.10
2019-05-18T19:24:07.464Z,52.82
2019-05-18T19:26:36.327Z,52.91
2019-05-18T19:29:05.236Z,53.85
2019-05-18T19:31:35.023Z,54.04
2019-05-18T19:34:03.991Z,54.64
2019-05-18T19:36:32.953Z,54.37
2019-05-18T19:39:01.970Z,54.59
2019-05-18T19:41:30.644Z,54.47
2019-05-18T19:43:59.513Z,54.51
2019-05-18T19:46:28.359Z,55.54
2019-05-18T19:48:57.273Z,56.32
2019-05-18T19:51:27.447Z,55.43
2019-05-18T19:53:56.760Z,55.86
2019-05-18T19:56:25.622Z,57.00
2019-05-18T19:58:54.429Z,56.91
2019-05-18T20:01:23.256Z,56.92
2019-05-18T20:03:52.108Z,57.41
2019-05-18T20:06:21.066Z,57.40
2019-05-18T20:08:50.598Z,57.67
2019-05-18T20:11:20.293Z,57.45
2019-05-18T20:13:49.984Z,57.09
2019-05-18T20:16:19.594Z,57.80
2019-05-18T20:31:18.212Z,58.86
2019-05-18T20:33:49.918Z,59.22
2019-05-18T20:36:26.564Z,59.27
2019-05-18T20:39:13.012Z,59.48
2019-05-18T20:41:48.370Z,60.59
2019-05-18T20:44:18.061Z,60.54
2019-05-18T20:47:02.414Z,60.60
2019-05-18T20:49:32.354Z,61.22
2019-05-18T20:55:11.518Z,61.15
2019-05-18T20:57:52.006Z,61.24
2019-05-18T21:00:23.063Z,61.34
2019-05-18T21:02:53.372Z,62.64
2019-05-18T21:05:43.166Z,62.97
2019-05-18T21:32:13.965Z,63.72
2019-05-18T21:34:42.869Z,65.11
2019-05-18T21:37:11.779Z,65.33
2019-05-18T21:39:40.636Z,65.78
2019-05-18T21:42:10.096Z,65.78
2019-05-18T21:44:40.584Z,66.75
2019-05-18T21:47:09.446Z,66.44
2019-05-18T21:49:38.363Z,66.10
2019-05-18T21:52:08.140Z,67.01
2019-05-18T21:54:37.008Z,67.29
2019-05-18T21:57:05.833Z,67.27
2019-05-18T21:59:34.647Z,67.26
2019-05-18T22:02:03.523Z,67.77
2019-05-18T22:04:32.407Z,67.96
2019-05-18T22:07:02.879Z,68.95
2019-05-18T22:09:33.700Z,68.63
2019-05-18T22:12:03.882Z,69.48
2019-05-18T22:14:32.663Z,69.53
2019-05-18T22:17:03.190Z,68.96
2019-05-18T22:19:32.635Z,70.08
2019-05-18T22:22:02.200Z,71.83
2019-05-18T22:24:31.037Z,71.18
2019-05-18T22:27:01.150Z,71.05
2019-05-18T22:29:30.117Z,70.89
2019-05-18T22:32:00.568Z,71.51
2019-05-18T22:34:30.684Z,71.92
2019-05-18T22:37:01.846Z,72.86
2019-05-18T22:39:31.487Z,72.08
2019-05-18T22:42:00.901Z,72.66
2019-05-18T22:44:30.037Z,72.76
2019-05-18T22:47:00.191Z,72.84
2019-05-18T22:49:30.704Z,72.83
2019-05-18T22:52:00.395Z,73.01
2019-05-18T22:54:30.989Z,73.30
2019-05-18T22:57:00.317Z,72.41
2019-05-18T22:59:29.201Z,72.34
2019-05-18T23:01:58.150Z,72.47
2019-05-18T23:04:27.455Z,72.61
2019-05-18T23:06:57.024Z,72.52
2019-05-18T23:09:26.080Z,72.27
2019-05-18T23:11:54.907Z,71.86
2019-05-18T23:14:23.805Z,72.32
2019-05-18T23:16:52.596Z,73.23
2019-05-18T23:19:21.448Z,73.15
2019-05-18T23:21:50.379Z,72.94
2019-05-18T23:24:19.201Z,73.24
2019-05-18T23:26:48.559Z,73.61
2019-05-18T23:29:17.374Z,73.95
2019-05-18T23:31:46.196Z,74.36
2019-05-18T23:34:15.028Z,73.91
2019-05-18T23:36:43.912Z,74.13
2019-05-18T23:39:12.707Z,74.51
2019-05-18T23:41:43.839Z,74.35
2019-05-18T23:44:12.728Z,74.41
2019-05-18T23:46:41.597Z,74.25
2019-05-18T23:49:11.335Z,74.32
2019-05-18T23:51:39.374Z,75.35
2019-05-18T23:54:09.752Z,74.55
2019-05-18T23:56:38.572Z,74.87
2019-05-18T23:59:07.428Z,75.35
